Fantasia — ICJY — position and weather

sailwx.info

Track history (hours):
 
Tides and Currents Weather Stations Pressure Air Temp Water Temp Dewpoint Dewpoint Depression Visibility Wind Speed Wind Dir Waves Ship Positions

Fantasia

Last reported at 2015-Mar-27 01:33 UTC. Time now 2015-Mar-27 02:01 UTC.
Position N 55°41' E 006°44'.

Length 183 m; draft 7.8 m.

Type: Tanker. MMSI: 247279600.

Date/timePositionNaut miles runAvg speedWind from/ knotsBaromVisibWave heightAir tempDewpointWater temp
2015-Mar-27 01:33N 55°41' E 006°44'1312.9
2015-Mar-27 00:33N 55°28' E 006°42'1312.8
2015-Mar-26 23:33N 55°15' E 006°44'1313.1
2015-Mar-26 22:33N 55°03' E 006°52'1313.3
2015-Mar-26 21:33N 54°51' E 007°01'1413.5
2015-Mar-26 20:33N 54°38' E 007°10'1414.0
2015-Mar-26 19:33N 54°25' E 007°19'1414.2
2015-Mar-26 18:33N 54°12' E 007°29'1414.0
2015-Mar-26 17:33N 53°60' E 007°39'1312.6
2015-Mar-26 16:33N 53°50' E 007°53'1312.9
2015-Mar-26 15:33N 53°40' E 008°06'3 2.6
2015-Mar-26 14:30N 53°37' E 008°08'0 0.0
2015-Mar-26 13:33N 53°37' E 008°08'0 0.0
2015-Mar-26 12:30N 53°37' E 008°08'0 0.0
2015-Mar-26 11:33N 53°37' E 008°08'0 0.0
2015-Mar-26 10:30N 53°37' E 008°08'0 0.0
2015-Mar-26 09:33N 53°37' E 008°08'0 0.0
2015-Mar-26 08:30N 53°37' E 008°08'0 0.0
2015-Mar-26 07:33N 53°37' E 008°08'0 0.0
2015-Mar-26 06:27N 53°37' E 008°08'0 0.0
2015-Mar-26 05:33N 53°37' E 008°08'0 0.0
2015-Mar-26 04:27N 53°37' E 008°08'0 0.0
2015-Mar-26 03:33N 53°37' E 008°08'0 0.0
2015-Mar-26 02:33N 53°37' E 008°08'0 0.0
2015-Mar-26 01:24N 53°37' E 008°08'0 0.0
2015-Mar-26 00:33N 53°37' E 008°08'0 0.0
2015-Mar-25 23:33N 53°37' E 008°08'0 0.0
2015-Mar-25 22:33N 53°37' E 008°08'0 0.0
2015-Mar-25 21:30N 53°37' E 008°08'0 0.0
2015-Mar-25 20:10N 53°37' E 008°08'0 0.0
2015-Mar-25 19:33N 53°37' E 008°08'0 0.0
2015-Mar-25 18:30N 53°37' E 008°08'0 0.0
2015-Mar-25 09:10N 53°37' E 008°08'0 0.0
2015-Mar-25 08:22N 53°37' E 008°08'0 0.0
2015-Mar-25 07:31N 53°37' E 008°08'0 0.0
2015-Mar-25 06:22N 53°37' E 008°08'0 0.0
2015-Mar-25 05:28N 53°37' E 008°08'0 0.0
2015-Mar-25 04:16N 53°37' E 008°08'0 0.0
2015-Mar-25 03:28N 53°37' E 008°08'0 0.0
2015-Mar-25 02:31N 53°37' E 008°08'0 0.0
2015-Mar-25 01:22N 53°37' E 008°08'0 0.0
2015-Mar-25 00:25N 53°37' E 008°08'0 0.0
2015-Mar-24 23:31N 53°37' E 008°08'0 0.0
2015-Mar-24 22:31N 53°37' E 008°08'0 0.0
2015-Mar-24 21:28N 53°37' E 008°08'0 0.0
2015-Mar-24 20:22N 53°37' E 008°08'3 3.5
2015-Mar-24 19:34N 53°40' E 008°06'8 8.4
2015-Mar-24 18:33N 53°48' E 008°01'9 9.1
2015-Mar-24 17:33N 53°52' E 007°47'9 9.4
2015-Mar-24 16:33N 53°59' E 007°37'9 9.2
2015-Mar-24 15:33N 54°06' E 007°27'0 0.1
2015-Mar-24 14:32N 54°06' E 007°27'0 0.0
2015-Mar-24 13:29N 54°06' E 007°27'0 0.0
2015-Mar-24 12:32N 54°06' E 007°27'0 0.0
2015-Mar-24 11:29N 54°06' E 007°27'0 0.0
2015-Mar-24 10:32N 54°06' E 007°27'0 0.0
2015-Mar-24 09:32N 54°06' E 007°27'0 0.1
2015-Mar-24 08:29N 54°06' E 007°27'0 0.2
2015-Mar-24 07:32N 54°06' E 007°27'0 0.0
2015-Mar-24 06:32N 54°06' E 007°27'0 0.0
2015-Mar-24 05:29N 54°06' E 007°27'0 0.0
2015-Mar-24 04:17N 54°06' E 007°27'0 0.1
2015-Mar-24 03:26N 54°06' E 007°27'0 0.1
2015-Mar-24 02:20N 54°06' E 007°27'0 0.0
2015-Mar-24 01:32N 54°06' E 007°27'0 0.0
2015-Mar-24 00:26N 54°06' E 007°27'0 0.0
2015-Mar-23 23:29N 54°06' E 007°27'0 0.0
2015-Mar-23 22:29N 54°06' E 007°27'0 0.0
2015-Mar-23 21:32N 54°06' E 007°27'0 0.0
2015-Mar-23 20:32N 54°06' E 007°27'0 0.1
2015-Mar-23 19:29N 54°06' E 007°27'0 0.1
2015-Mar-23 18:20N 54°06' E 007°27'0 0.0
2015-Mar-23 17:32N 54°06' E 007°27'0 0.1
2015-Mar-23 16:29N 54°06' E 007°27'0 0.1
2015-Mar-23 15:26N 54°06' E 007°27'0 0.1
2015-Mar-23 14:20N 54°06' E 007°27'0 0.0
2015-Mar-23 13:32N 54°06' E 007°27'0 0.0
2015-Mar-23 12:32N 54°06' E 007°27'0 0.0
2015-Mar-23 11:32N 54°06' E 007°27'0 0.0
2015-Mar-23 10:26N 54°06' E 007°27'0 0.0
2015-Mar-23 09:23N 54°06' E 007°27'0 0.0
2015-Mar-23 08:32N 54°06' E 007°27'0 0.1
2015-Mar-23 07:26N 54°06' E 007°27'0 0.1
2015-Mar-23 06:20N 54°06' E 007°27'0 0.0
2015-Mar-23 05:23N 54°06' E 007°27'0 0.0
2015-Mar-23 04:29N 54°06' E 007°27'0 0.0
2015-Mar-23 03:32N 54°06' E 007°27'0 0.1
2015-Mar-23 02:20N 54°06' E 007°27'0 0.0
2015-Mar-23 01:29N 54°06' E 007°27'0 0.1
2015-Mar-23 00:32N 54°06' E 007°27'0 0.1
2015-Mar-22 23:29N 54°06' E 007°27'0 0.0
2015-Mar-22 22:26N 54°06' E 007°27'0 0.0
2015-Mar-22 21:32N 54°06' E 007°27'0 0.0
2015-Mar-22 20:32N 54°06' E 007°27'0 0.2
2015-Mar-22 19:26N 54°06' E 007°27'0 0.0
2015-Mar-22 18:29N 54°06' E 007°27'0 0.0
2015-Mar-22 17:32N 54°06' E 007°27'0 0.0
2015-Mar-22 16:32N 54°06' E 007°27'0 0.0
2015-Mar-22 15:23N 54°06' E 007°27'0 0.0
2015-Mar-22 14:32N 54°06' E 007°27'0 0.0
2015-Mar-22 13:32N 54°06' E 007°27'0 0.2
2015-Mar-22 12:32N 54°06' E 007°27'0 0.0
2015-Mar-22 11:26N 54°06' E 007°27'0 0.0
2015-Mar-22 10:29N 54°06' E 007°27'0 0.0
2015-Mar-22 09:32N 54°06' E 007°27'0 0.1
2015-Mar-22 08:26N 54°06' E 007°27'0 0.2
2015-Mar-22 07:29N 54°06' E 007°27'0 0.0
2015-Mar-22 06:29N 54°06' E 007°27'0 0.0
2015-Mar-22 05:11N 54°06' E 007°27'0 0.0
2015-Mar-22 04:32N 54°06' E 007°27'0 0.0
2015-Mar-22 03:29N 54°06' E 007°27'0 0.0
2015-Mar-22 02:32N 54°06' E 007°27'0 0.1
2015-Mar-22 01:29N 54°06' E 007°27'0 0.0
2015-Mar-22 00:29N 54°06' E 007°27'0 0.1
2015-Mar-21 23:26N 54°06' E 007°27'0 0.1
2015-Mar-21 22:29N 54°06' E 007°27'0 0.0
2015-Mar-21 21:20N 54°06' E 007°27'0 0.0
2015-Mar-21 20:23N 54°06' E 007°27'0 0.1
2015-Mar-21 19:32N 54°06' E 007°27'0 0.1
2015-Mar-21 18:17N 54°06' E 007°27'0 0.0
2015-Mar-21 17:32N 54°06' E 007°27'0 0.0
2015-Mar-21 16:29N 54°06' E 007°27'0 0.0
2015-Mar-21 15:32N 54°06' E 007°27'0 0.0
2015-Mar-21 14:20N 54°06' E 007°27'0 0.1
2015-Mar-21 13:29N 54°06' E 007°27'0 0.1
2015-Mar-21 12:32N 54°06' E 007°27'0 0.1
2015-Mar-21 11:32N 54°06' E 007°27'0 0.0
2015-Mar-21 10:32N 54°06' E 007°27'0 0.0
2015-Mar-21 09:26N 54°06' E 007°27'4 4.8
2015-Mar-21 08:33N 54°10' E 007°26'9 8.5
2015-Mar-21 07:33N 54°18' E 007°20'22810.3
2015-Mar-20 09:33N 57°48' E 009°58'1212.4
2015-Mar-20 08:33N 57°49' E 010°21'1312.7
2015-Mar-20 07:33N 57°48' E 010°45'1111.3
2015-Mar-20 06:33N 57°41' E 011°01'1313.2
2015-Mar-20 05:33N 57°31' E 011°18'1312.7
2015-Mar-20 04:33N 57°21' E 011°30'1312.7
2015-Mar-20 03:33N 57°09' E 011°39'1312.6
2015-Mar-20 02:33N 56°57' E 011°46'1212.3
2015-Mar-20 01:32N 56°45' E 011°52'1312.9
2015-Mar-20 00:33N 56°33' E 011°41'1312.7
2015-Mar-19 23:32N 56°22' E 011°29'1313.0
2015-Mar-19 22:33N 56°11' E 011°18'1312.6
2015-Mar-19 21:32N 56°01' E 011°04'1211.7
2015-Mar-19 20:29N 55°52' E 010°48'4712.0
2015-Mar-19 16:33N 55°06' E 010°59'2512.4
2015-Mar-19 14:32N 54°42' E 010°47'1111.8
2015-Mar-19 13:33N 54°36' E 011°04'1312.9
2015-Mar-19 12:33N 54°32' E 011°25'1312.7
2015-Mar-19 11:33N 54°27' E 011°45'1212.4
2015-Mar-19 10:33N 54°26' E 012°07'1111.4
2015-Mar-19 09:33N 54°36' E 012°17'1211.8
2015-Mar-19 08:33N 54°43' E 012°33'1212.5
2015-Mar-19 07:33N 54°49' E 012°52'1312.5
2015-Mar-19 06:33N 54°54' E 013°12'1312.5
2015-Mar-19 05:33N 54°58' E 013°33'1312.7
2015-Mar-19 04:33N 55°02' E 013°54'1212.2
2015-Mar-19 03:33N 55°09' E 014°11'1312.8
2015-Mar-19 02:33N 55°20' E 014°24'1312.9
2015-Mar-19 01:33N 55°29' E 014°41'1212.5
2015-Mar-19 00:33N 55°35' E 014°60'1312.6
2015-Mar-18 23:33N 55°39' E 015°21'1312.7
2015-Mar-18 22:33N 55°42' E 015°43'1312.5
2015-Mar-18 21:33N 55°45' E 016°04'1312.7
2015-Mar-18 20:33N 55°49' E 016°26'2712.8
2015-Mar-18 18:25N 55°55' E 017°13'1312.7
2015-Mar-18 17:24N 55°58' E 017°35'1112.6
2015-Mar-18 16:32N 56°03' E 017°53'1412.8
2015-Mar-18 15:27N 56°11' E 018°14'25812.3
2015-Mar-17 18:33N 59°35' E 023°09'1313.0
2015-Mar-17 17:33N 59°39' E 023°34'1312.9
2015-Mar-17 16:32N 59°42' E 023°59'1312.9
2015-Mar-17 15:33N 59°45' E 024°23'16 7.8
2015-Mar-17 13:31N 59°36' E 024°48'0 0.1
2015-Mar-17 12:31N 59°36' E 024°48'0 0.0
2015-Mar-17 11:31N 59°36' E 024°48'0 0.0
2015-Mar-17 10:28N 59°36' E 024°48'0 0.0
2015-Mar-17 09:28N 59°36' E 024°48'0 0.0
2015-Mar-17 08:31N 59°36' E 024°48'0 0.0
2015-Mar-17 07:31N 59°36' E 024°48'0 0.0
2015-Mar-17 06:31N 59°36' E 024°48'0 0.0
2015-Mar-17 05:28N 59°36' E 024°48'0 0.0
2015-Mar-17 04:31N 59°36' E 024°48'0 0.0
2015-Mar-17 03:31N 59°36' E 024°48'0 0.1
2015-Mar-17 02:28N 59°36' E 024°48'2 2.7
2015-Mar-17 01:34N 59°38' E 024°49'  
Track history (hours):
 
Tides and Currents Weather Stations Pressure Air Temp Water Temp Dewpoint Dewpoint Depression Visibility Wind Speed Wind Dir Waves Ship Positions

Fantasia

Last reported at 2015-Mar-27 01:33 UTC. Time now 2015-Mar-27 02:01 UTC.
Position N 55°41' E 006°44'.

Length 183 m; draft 7.8 m.

Type: Tanker. MMSI: 247279600.

Date/timePositionNaut miles runAvg speedWind from/ knotsBaromVisibWave heightAir tempDewpointWater temp
2015-Mar-27 01:33N 55°41' E 006°44'1312.9
2015-Mar-27 00:33N 55°28' E 006°42'1312.8
2015-Mar-26 23:33N 55°15' E 006°44'1313.1
2015-Mar-26 22:33N 55°03' E 006°52'1313.3
2015-Mar-26 21:33N 54°51' E 007°01'1413.5
2015-Mar-26 20:33N 54°38' E 007°10'1414.0
2015-Mar-26 19:33N 54°25' E 007°19'1414.2
2015-Mar-26 18:33N 54°12' E 007°29'1414.0
2015-Mar-26 17:33N 53°60' E 007°39'1312.6
2015-Mar-26 16:33N 53°50' E 007°53'1312.9
2015-Mar-26 15:33N 53°40' E 008°06'3 2.6
2015-Mar-26 14:30N 53°37' E 008°08'0 0.0
2015-Mar-26 13:33N 53°37' E 008°08'0 0.0
2015-Mar-26 12:30N 53°37' E 008°08'0 0.0
2015-Mar-26 11:33N 53°37' E 008°08'0 0.0
2015-Mar-26 10:30N 53°37' E 008°08'0 0.0
2015-Mar-26 09:33N 53°37' E 008°08'0 0.0
2015-Mar-26 08:30N 53°37' E 008°08'0 0.0
2015-Mar-26 07:33N 53°37' E 008°08'0 0.0
2015-Mar-26 06:27N 53°37' E 008°08'0 0.0
2015-Mar-26 05:33N 53°37' E 008°08'0 0.0
2015-Mar-26 04:27N 53°37' E 008°08'0 0.0
2015-Mar-26 03:33N 53°37' E 008°08'0 0.0
2015-Mar-26 02:33N 53°37' E 008°08'0 0.0
2015-Mar-26 01:24N 53°37' E 008°08'0 0.0
2015-Mar-26 00:33N 53°37' E 008°08'0 0.0
2015-Mar-25 23:33N 53°37' E 008°08'0 0.0
2015-Mar-25 22:33N 53°37' E 008°08'0 0.0
2015-Mar-25 21:30N 53°37' E 008°08'0 0.0
2015-Mar-25 20:10N 53°37' E 008°08'0 0.0
2015-Mar-25 19:33N 53°37' E 008°08'0 0.0
2015-Mar-25 18:30N 53°37' E 008°08'0 0.0
2015-Mar-25 09:10N 53°37' E 008°08'0 0.0
2015-Mar-25 08:22N 53°37' E 008°08'0 0.0
2015-Mar-25 07:31N 53°37' E 008°08'0 0.0
2015-Mar-25 06:22N 53°37' E 008°08'0 0.0
2015-Mar-25 05:28N 53°37' E 008°08'0 0.0
2015-Mar-25 04:16N 53°37' E 008°08'0 0.0
2015-Mar-25 03:28N 53°37' E 008°08'0 0.0
2015-Mar-25 02:31N 53°37' E 008°08'0 0.0
2015-Mar-25 01:22N 53°37' E 008°08'0 0.0
2015-Mar-25 00:25N 53°37' E 008°08'0 0.0
2015-Mar-24 23:31N 53°37' E 008°08'0 0.0
2015-Mar-24 22:31N 53°37' E 008°08'0 0.0
2015-Mar-24 21:28N 53°37' E 008°08'0 0.0
2015-Mar-24 20:22N 53°37' E 008°08'3 3.5
2015-Mar-24 19:34N 53°40' E 008°06'8 8.4
2015-Mar-24 18:33N 53°48' E 008°01'9 9.1
2015-Mar-24 17:33N 53°52' E 007°47'9 9.4
2015-Mar-24 16:33N 53°59' E 007°37'9 9.2
2015-Mar-24 15:33N 54°06' E 007°27'0 0.1
2015-Mar-24 14:32N 54°06' E 007°27'0 0.0
2015-Mar-24 13:29N 54°06' E 007°27'0 0.0
2015-Mar-24 12:32N 54°06' E 007°27'0 0.0
2015-Mar-24 11:29N 54°06' E 007°27'0 0.0
2015-Mar-24 10:32N 54°06' E 007°27'0 0.0
2015-Mar-24 09:32N 54°06' E 007°27'0 0.1
2015-Mar-24 08:29N 54°06' E 007°27'0 0.2
2015-Mar-24 07:32N 54°06' E 007°27'0 0.0
2015-Mar-24 06:32N 54°06' E 007°27'0 0.0
2015-Mar-24 05:29N 54°06' E 007°27'0 0.0
2015-Mar-24 04:17N 54°06' E 007°27'0 0.1
2015-Mar-24 03:26N 54°06' E 007°27'0 0.1
2015-Mar-24 02:20N 54°06' E 007°27'0 0.0
2015-Mar-24 01:32N 54°06' E 007°27'0 0.0
2015-Mar-24 00:26N 54°06' E 007°27'0 0.0
2015-Mar-23 23:29N 54°06' E 007°27'0 0.0
2015-Mar-23 22:29N 54°06' E 007°27'0 0.0
2015-Mar-23 21:32N 54°06' E 007°27'0 0.0
2015-Mar-23 20:32N 54°06' E 007°27'0 0.1
2015-Mar-23 19:29N 54°06' E 007°27'0 0.1
2015-Mar-23 18:20N 54°06' E 007°27'0 0.0
2015-Mar-23 17:32N 54°06' E 007°27'0 0.1
2015-Mar-23 16:29N 54°06' E 007°27'0 0.1
2015-Mar-23 15:26N 54°06' E 007°27'0 0.1
2015-Mar-23 14:20N 54°06' E 007°27'0 0.0
2015-Mar-23 13:32N 54°06' E 007°27'0 0.0
2015-Mar-23 12:32N 54°06' E 007°27'0 0.0
2015-Mar-23 11:32N 54°06' E 007°27'0 0.0
2015-Mar-23 10:26N 54°06' E 007°27'0 0.0
2015-Mar-23 09:23N 54°06' E 007°27'0 0.0
2015-Mar-23 08:32N 54°06' E 007°27'0 0.1
2015-Mar-23 07:26N 54°06' E 007°27'0 0.1
2015-Mar-23 06:20N 54°06' E 007°27'0 0.0
2015-Mar-23 05:23N 54°06' E 007°27'0 0.0
2015-Mar-23 04:29N 54°06' E 007°27'0 0.0
2015-Mar-23 03:32N 54°06' E 007°27'0 0.1
2015-Mar-23 02:20N 54°06' E 007°27'0 0.0
2015-Mar-23 01:29N 54°06' E 007°27'0 0.1
2015-Mar-23 00:32N 54°06' E 007°27'0 0.1
2015-Mar-22 23:29N 54°06' E 007°27'0 0.0
2015-Mar-22 22:26N 54°06' E 007°27'0 0.0
2015-Mar-22 21:32N 54°06' E 007°27'0 0.0
2015-Mar-22 20:32N 54°06' E 007°27'0 0.2
2015-Mar-22 19:26N 54°06' E 007°27'0 0.0
2015-Mar-22 18:29N 54°06' E 007°27'0 0.0
2015-Mar-22 17:32N 54°06' E 007°27'0 0.0
2015-Mar-22 16:32N 54°06' E 007°27'0 0.0
2015-Mar-22 15:23N 54°06' E 007°27'0 0.0
2015-Mar-22 14:32N 54°06' E 007°27'0 0.0
2015-Mar-22 13:32N 54°06' E 007°27'0 0.2
2015-Mar-22 12:32N 54°06' E 007°27'0 0.0
2015-Mar-22 11:26N 54°06' E 007°27'0 0.0
2015-Mar-22 10:29N 54°06' E 007°27'0 0.0
2015-Mar-22 09:32N 54°06' E 007°27'0 0.1
2015-Mar-22 08:26N 54°06' E 007°27'0 0.2
2015-Mar-22 07:29N 54°06' E 007°27'0 0.0
2015-Mar-22 06:29N 54°06' E 007°27'0 0.0
2015-Mar-22 05:11N 54°06' E 007°27'0 0.0
2015-Mar-22 04:32N 54°06' E 007°27'0 0.0
2015-Mar-22 03:29N 54°06' E 007°27'0 0.0
2015-Mar-22 02:32N 54°06' E 007°27'0 0.1
2015-Mar-22 01:29N 54°06' E 007°27'0 0.0
2015-Mar-22 00:29N 54°06' E 007°27'0 0.1
2015-Mar-21 23:26N 54°06' E 007°27'0 0.1
2015-Mar-21 22:29N 54°06' E 007°27'0 0.0
2015-Mar-21 21:20N 54°06' E 007°27'0 0.0
2015-Mar-21 20:23N 54°06' E 007°27'0 0.1
2015-Mar-21 19:32N 54°06' E 007°27'0 0.1
2015-Mar-21 18:17N 54°06' E 007°27'0 0.0
2015-Mar-21 17:32N 54°06' E 007°27'0 0.0
2015-Mar-21 16:29N 54°06' E 007°27'0 0.0
2015-Mar-21 15:32N 54°06' E 007°27'0 0.0
2015-Mar-21 14:20N 54°06' E 007°27'0 0.1
2015-Mar-21 13:29N 54°06' E 007°27'0 0.1
2015-Mar-21 12:32N 54°06' E 007°27'0 0.1
2015-Mar-21 11:32N 54°06' E 007°27'0 0.0
2015-Mar-21 10:32N 54°06' E 007°27'0 0.0
2015-Mar-21 09:26N 54°06' E 007°27'4 4.8
2015-Mar-21 08:33N 54°10' E 007°26'9 8.5
2015-Mar-21 07:33N 54°18' E 007°20'22810.3
2015-Mar-20 09:33N 57°48' E 009°58'1212.4
2015-Mar-20 08:33N 57°49' E 010°21'1312.7
2015-Mar-20 07:33N 57°48' E 010°45'1111.3
2015-Mar-20 06:33N 57°41' E 011°01'1313.2
2015-Mar-20 05:33N 57°31' E 011°18'1312.7
2015-Mar-20 04:33N 57°21' E 011°30'1312.7
2015-Mar-20 03:33N 57°09' E 011°39'1312.6
2015-Mar-20 02:33N 56°57' E 011°46'1212.3
2015-Mar-20 01:32N 56°45' E 011°52'1312.9
2015-Mar-20 00:33N 56°33' E 011°41'1312.7
2015-Mar-19 23:32N 56°22' E 011°29'1313.0
2015-Mar-19 22:33N 56°11' E 011°18'1312.6
2015-Mar-19 21:32N 56°01' E 011°04'1211.7
2015-Mar-19 20:29N 55°52' E 010°48'4712.0
2015-Mar-19 16:33N 55°06' E 010°59'2512.4
2015-Mar-19 14:32N 54°42' E 010°47'1111.8
2015-Mar-19 13:33N 54°36' E 011°04'1312.9
2015-Mar-19 12:33N 54°32' E 011°25'1312.7
2015-Mar-19 11:33N 54°27' E 011°45'1212.4
2015-Mar-19 10:33N 54°26' E 012°07'1111.4
2015-Mar-19 09:33N 54°36' E 012°17'1211.8
2015-Mar-19 08:33N 54°43' E 012°33'1212.5
2015-Mar-19 07:33N 54°49' E 012°52'1312.5
2015-Mar-19 06:33N 54°54' E 013°12'1312.5
2015-Mar-19 05:33N 54°58' E 013°33'1312.7
2015-Mar-19 04:33N 55°02' E 013°54'1212.2
2015-Mar-19 03:33N 55°09' E 014°11'1312.8
2015-Mar-19 02:33N 55°20' E 014°24'1312.9
2015-Mar-19 01:33N 55°29' E 014°41'1212.5
2015-Mar-19 00:33N 55°35' E 014°60'1312.6
2015-Mar-18 23:33N 55°39' E 015°21'1312.7
2015-Mar-18 22:33N 55°42' E 015°43'1312.5
2015-Mar-18 21:33N 55°45' E 016°04'1312.7
2015-Mar-18 20:33N 55°49' E 016°26'2712.8
2015-Mar-18 18:25N 55°55' E 017°13'1312.7
2015-Mar-18 17:24N 55°58' E 017°35'1112.6
2015-Mar-18 16:32N 56°03' E 017°53'1412.8
2015-Mar-18 15:27N 56°11' E 018°14'25812.3
2015-Mar-17 18:33N 59°35' E 023°09'1313.0
2015-Mar-17 17:33N 59°39' E 023°34'1312.9
2015-Mar-17 16:32N 59°42' E 023°59'1312.9
2015-Mar-17 15:33N 59°45' E 024°23'16 7.8
2015-Mar-17 13:31N 59°36' E 024°48'0 0.1
2015-Mar-17 12:31N 59°36' E 024°48'0 0.0
2015-Mar-17 11:31N 59°36' E 024°48'0 0.0
2015-Mar-17 10:28N 59°36' E 024°48'0 0.0
2015-Mar-17 09:28N 59°36' E 024°48'0 0.0
2015-Mar-17 08:31N 59°36' E 024°48'0 0.0
2015-Mar-17 07:31N 59°36' E 024°48'0 0.0
2015-Mar-17 06:31N 59°36' E 024°48'0 0.0
2015-Mar-17 05:28N 59°36' E 024°48'0 0.0
2015-Mar-17 04:31N 59°36' E 024°48'0 0.0
2015-Mar-17 03:31N 59°36' E 024°48'0 0.1
2015-Mar-17 02:28N 59°36' E 024°48'2 2.7
2015-Mar-17 01:34N 59°38' E 024°49'  

Dump ship's entire track history